Terminal Aerodrome Forecast
Issued by NWS

Home | Current Version | Previous Version | Text Only | Print | Product List | Glossary On
Versions: 1 2 3 4 5 6 7 8 9 10 11 12 13 14 15 16 17 18 19 20 21
767
FTUS41 KBTV 230535
TAFMPV
TAF
KMPV 230535Z 2306/2406 18005KT P6SM SCT010 OVC025
      TEMPO 2306/2310 4SM BR OVC010
     FM231200 15006KT P6SM OVC025
     FM240000 09010KT P6SM VCSH OVC035
     FM240300 08009KT 4SM -SN BR OVC015=

USA.gov is the U.S. government's official web portal to all federal, state and local government web resources and services.